createdAt,value
2022-12-20T00:01:14.228Z,49.50
2022-12-20T00:08:30.979Z,45.60
2022-12-20T00:11:01.354Z,50.90
2022-12-20T00:13:32.792Z,50.15
2022-12-20T00:16:11.536Z,52.15
2022-12-20T00:18:40.879Z,49.13
2022-12-20T00:21:11.839Z,47.75
2022-12-20T00:23:40.953Z,47.22
2022-12-20T00:26:19.877Z,49.63
2022-12-20T00:28:48.528Z,47.22
2022-12-20T00:31:18.202Z,44.42
2022-12-20T00:33:47.788Z,46.50
2022-12-20T00:37:16.839Z,48.08
2022-12-20T00:39:47.593Z,46.53
2022-12-20T00:43:23.109Z,47.22
2022-12-20T00:47:07.865Z,47.00
2022-12-20T00:49:33.098Z,47.03
2022-12-20T00:52:00.764Z,50.83
2022-12-20T00:54:41.405Z,49.80
2022-12-20T00:57:27.382Z,47.70
2022-12-20T01:04:06.241Z,51.42
2022-12-20T01:06:35.263Z,48.60
2022-12-20T01:09:02.866Z,47.58
2022-12-20T01:11:33.533Z,47.78
2022-12-20T01:17:32.859Z,47.75
2022-12-20T01:20:00.693Z,49.42
2022-12-20T01:22:28.454Z,47.10
2022-12-20T01:28:29.678Z,48.78
2022-12-20T01:30:57.691Z,53.20
2022-12-20T01:33:25.302Z,47.10
2022-12-20T01:36:00.403Z,46.20
2022-12-20T01:42:37.629Z,51.50
2022-12-20T01:45:09.143Z,57.38
2022-12-20T01:48:19.178Z,53.35
2022-12-20T01:50:48.165Z,49.83
2022-12-20T01:53:18.276Z,50.97
2022-12-20T01:55:47.950Z,47.38
2022-12-20T01:58:20.096Z,47.70
2022-12-20T02:00:48.095Z,46.17
2022-12-20T02:04:15.094Z,43.78
2022-12-20T02:07:31.187Z,43.95
2022-12-20T02:10:01.037Z,48.17
2022-12-20T02:12:45.533Z,43.22
2022-12-20T02:19:21.396Z,45.38
2022-12-20T02:22:04.198Z,48.90
2022-12-20T02:24:43.570Z,44.05
2022-12-20T02:27:52.772Z,45.95
2022-12-20T02:30:22.995Z,45.53
2022-12-20T02:33:03.696Z,44.58
2022-12-20T02:35:34.507Z,45.67
2022-12-20T02:38:30.178Z,48.30
2022-12-20T02:41:07.310Z,46.72
2022-12-20T02:43:58.197Z,47.22
2022-12-20T02:46:27.594Z,45.60
2022-12-20T02:49:50.161Z,45.65
2022-12-20T02:52:31.251Z,45.22
2022-12-20T02:55:03.206Z,45.47
2022-12-20T02:58:14.000Z,45.00
2022-12-20T03:00:48.864Z,44.78
2022-12-20T03:03:23.011Z,44.50
2022-12-20T03:09:52.848Z,44.25
2022-12-20T03:12:28.801Z,48.20
2022-12-20T03:14:56.437Z,44.53
2022-12-20T03:17:24.220Z,45.15
2022-12-20T03:20:19.409Z,50.08
2022-12-20T03:22:47.056Z,47.40
2022-12-20T03:25:15.043Z,46.40
2022-12-20T03:31:08.391Z,44.97
2022-12-20T03:33:44.452Z,48.78
2022-12-20T03:36:12.648Z,44.97
2022-12-20T03:38:40.687Z,46.90
2022-12-20T03:41:09.013Z,46.58
2022-12-20T03:43:36.625Z,46.08
2022-12-20T03:46:29.932Z,48.03
2022-12-20T03:48:58.412Z,44.88
2022-12-20T03:51:27.976Z,47.08
2022-12-20T03:57:27.424Z,49.63
2022-12-20T03:59:57.384Z,51.25
2022-12-20T04:02:50.267Z,47.33
2022-12-20T04:05:18.649Z,42.80
2022-12-20T04:08:57.884Z,48.47
2022-12-20T04:11:30.896Z,43.22
2022-12-20T04:14:14.155Z,44.30
2022-12-20T04:16:44.525Z,43.17
2022-12-20T04:19:12.513Z,45.17
2022-12-20T04:21:44.242Z,43.22
2022-12-20T04:24:12.692Z,48.22
2022-12-20T04:27:07.775Z,46.08
2022-12-20T04:29:35.525Z,43.58
2022-12-20T04:32:06.165Z,43.20
2022-12-20T04:34:33.982Z,46.25
2022-12-20T04:37:01.941Z,45.58
2022-12-20T04:39:39.715Z,46.50
2022-12-20T04:43:30.371Z,43.45
2022-12-20T04:50:33.525Z,48.08
2022-12-20T04:53:19.859Z,44.75
2022-12-20T04:55:48.352Z,45.15
2022-12-20T04:58:55.751Z,46.60
2022-12-20T05:01:24.063Z,43.33
2022-12-20T05:04:55.519Z,47.90
2022-12-20T05:08:16.810Z,47.40
2022-12-20T05:10:44.774Z,49.13
2022-12-20T05:13:14.005Z,14.05
2022-12-20T05:15:46.879Z,55.03
2022-12-20T05:18:14.627Z,54.78
2022-12-20T05:21:21.804Z,51.88
2022-12-20T05:24:20.683Z,58.72
2022-12-20T05:27:30.606Z,54.45
2022-12-20T05:29:58.659Z,54.45
2022-12-20T05:32:28.744Z,55.13
2022-12-20T05:35:31.026Z,52.08
2022-12-20T05:38:06.915Z,57.90
2022-12-20T05:40:37.667Z,57.28
2022-12-20T05:43:06.359Z,61.95
2022-12-20T05:45:48.520Z,65.97
2022-12-20T05:48:20.699Z,67.22
2022-12-20T05:51:39.746Z,62.10
2022-12-20T05:55:08.121Z,65.93
2022-12-20T05:58:51.804Z,64.30
2022-12-20T06:02:02.592Z,64.07
2022-12-20T06:04:38.701Z,68.97
2022-12-20T06:07:40.904Z,58.90
2022-12-20T06:10:09.693Z,53.22
2022-12-20T06:12:51.619Z,58.33
2022-12-20T06:15:19.521Z,50.75
2022-12-20T06:22:08.871Z,67.63
2022-12-20T06:24:48.595Z,67.65
2022-12-20T06:27:21.591Z,69.10
2022-12-20T06:29:55.715Z,71.30
2022-12-20T06:32:26.959Z,71.35
2022-12-20T06:34:55.492Z,84.65
2022-12-20T06:37:23.281Z,90.80
2022-12-20T06:39:51.047Z,99.43
2022-12-20T06:42:18.683Z,96.80
2022-12-20T06:44:47.279Z,88.78
2022-12-20T06:47:15.900Z,102.53
2022-12-20T06:49:43.499Z,100.50
2022-12-20T06:52:19.177Z,95.53
2022-12-20T06:54:49.877Z,94.63
2022-12-20T06:57:17.463Z,90.32
2022-12-20T06:59:47.957Z,85.75
2022-12-20T07:02:15.829Z,83.82
2022-12-20T07:04:43.560Z,87.47
2022-12-20T07:07:13.356Z,74.32
2022-12-20T07:09:41.638Z,76.20
2022-12-20T07:12:10.056Z,80.72
2022-12-20T07:14:37.824Z,89.15
2022-12-20T07:17:05.998Z,80.18
2022-12-20T07:19:34.293Z,75.68
2022-12-20T07:22:02.663Z,80.22
2022-12-20T07:24:30.354Z,67.40
2022-12-20T07:26:58.437Z,73.57
2022-12-20T07:29:25.969Z,71.50
2022-12-20T07:31:53.677Z,66.13
2022-12-20T07:34:21.492Z,78.15
2022-12-20T07:36:48.994Z,71.90
2022-12-20T07:39:16.844Z,69.35
2022-12-20T07:41:45.072Z,75.03
2022-12-20T07:44:16.902Z,68.70
2022-12-20T07:46:44.371Z,63.17
2022-12-20T07:49:11.904Z,65.72
2022-12-20T07:51:43.982Z,69.35
2022-12-20T07:54:19.579Z,68.88
2022-12-20T07:59:20.512Z,69.53
2022-12-20T08:01:49.103Z,65.78
2022-12-20T08:04:21.195Z,72.10
2022-12-20T08:06:50.771Z,68.32
2022-12-20T08:09:19.304Z,71.32
2022-12-20T08:11:49.279Z,70.45
2022-12-20T08:14:18.573Z,65.60
2022-12-20T08:16:46.641Z,65.30
2022-12-20T08:19:14.252Z,66.18
2022-12-20T08:21:41.747Z,68.32
2022-12-20T08:24:09.375Z,60.58
2022-12-20T08:26:41.869Z,60.50
2022-12-20T08:29:09.509Z,68.95
2022-12-20T08:31:49.475Z,63.22
2022-12-20T08:34:18.343Z,66.68
2022-12-20T08:36:45.811Z,65.00
2022-12-20T08:39:13.321Z,64.97
2022-12-20T08:41:40.849Z,62.72
2022-12-20T08:44:09.577Z,64.10
2022-12-20T08:46:55.358Z,67.10
2022-12-20T08:49:22.865Z,71.88
2022-12-20T08:51:50.494Z,73.70
2022-12-20T08:54:18.020Z,74.25
2022-12-20T08:56:45.527Z,80.85
2022-12-20T08:59:13.104Z,83.65
2022-12-20T09:01:40.868Z,82.55
2022-12-20T09:04:10.915Z,86.28
2022-12-20T09:06:39.242Z,83.07
2022-12-20T09:09:07.575Z,83.53
2022-12-20T09:11:35.129Z,93.22
2022-12-20T09:14:03.286Z,86.78
2022-12-20T09:16:33.271Z,85.50
2022-12-20T09:19:05.446Z,87.68
2022-12-20T09:21:34.559Z,86.93
2022-12-20T09:24:02.086Z,91.53
2022-12-20T09:26:30.746Z,89.40
2022-12-20T09:28:59.189Z,89.88
2022-12-20T09:31:27.302Z,85.53
2022-12-20T09:33:59.208Z,87.10
2022-12-20T09:36:29.153Z,91.25
2022-12-20T09:38:57.585Z,87.68
2022-12-20T09:41:31.839Z,94.95
2022-12-20T09:44:01.179Z,93.40
2022-12-20T09:46:28.860Z,92.50
2022-12-20T09:48:57.716Z,83.97
2022-12-20T09:51:44.338Z,83.63
2022-12-20T09:54:20.670Z,84.35
2022-12-20T09:57:17.235Z,85.47
2022-12-20T09:59:50.039Z,84.65
2022-12-20T10:02:55.736Z,83.32
2022-12-20T10:05:24.751Z,83.10
2022-12-20T10:08:09.238Z,85.75
2022-12-20T10:10:55.590Z,79.88
2022-12-20T10:13:29.152Z,76.60
2022-12-20T10:16:27.721Z,71.97
2022-12-20T10:19:02.104Z,75.88
2022-12-20T10:21:56.770Z,81.35
2022-12-20T10:24:35.109Z,82.72
2022-12-20T10:27:13.407Z,76.63
2022-12-20T10:29:41.665Z,69.35
2022-12-20T10:32:18.781Z,68.93
2022-12-20T10:34:55.281Z,76.32
2022-12-20T10:37:22.930Z,72.47
2022-12-20T10:39:52.142Z,76.68
2022-12-20T10:42:28.730Z,75.20
2022-12-20T10:44:57.915Z,74.70
2022-12-20T10:47:45.654Z,75.88
2022-12-20T10:50:25.070Z,72.50
2022-12-20T10:53:22.930Z,77.65
2022-12-20T10:55:51.930Z,73.53
2022-12-20T10:58:22.296Z,70.22
2022-12-20T11:00:49.927Z,77.15
2022-12-20T11:03:22.821Z,70.47
2022-12-20T11:05:59.665Z,71.13
2022-12-20T11:08:42.746Z,69.13
2022-12-20T11:11:22.091Z,70.82
2022-12-20T11:13:51.466Z,71.07
2022-12-20T11:16:38.098Z,68.85
2022-12-20T11:19:29.276Z,69.65
2022-12-20T11:22:08.038Z,74.40
2022-12-20T11:25:23.248Z,71.30
2022-12-20T11:28:21.379Z,75.88
2022-12-20T11:31:04.300Z,71.43
2022-12-20T11:33:41.313Z,69.80
2022-12-20T11:36:25.722Z,72.95
2022-12-20T11:39:01.550Z,69.90
2022-12-20T11:41:56.499Z,64.65
2022-12-20T11:45:03.283Z,70.10
2022-12-20T11:47:36.116Z,72.25
2022-12-20T11:50:44.655Z,66.43
2022-12-20T11:53:39.266Z,83.43
2022-12-20T11:56:21.620Z,90.05
2022-12-20T11:59:01.117Z,116.22
2022-12-20T12:01:41.371Z,87.65
2022-12-20T12:04:17.532Z,357.23
2022-12-20T12:06:52.197Z,169.48
2022-12-20T12:09:36.844Z,112.57
2022-12-20T12:12:39.524Z,65.93
2022-12-20T12:15:16.235Z,63.80
2022-12-20T12:18:03.022Z,60.95
2022-12-20T12:23:05.827Z,81.93
2022-12-20T12:25:33.461Z,78.45
2022-12-20T12:28:01.219Z,91.55
2022-12-20T12:30:36.416Z,87.85
2022-12-20T12:33:23.961Z,86.75
2022-12-20T12:36:03.949Z,94.82
2022-12-20T12:38:44.387Z,92.07
2022-12-20T12:41:39.520Z,91.20
2022-12-20T12:44:19.150Z,93.13
2022-12-20T12:46:53.855Z,111.22
2022-12-20T12:49:24.928Z,95.43
2022-12-20T12:51:55.886Z,89.00
2022-12-20T12:54:37.618Z,89.82
2022-12-20T12:57:14.586Z,86.60
2022-12-20T12:59:48.395Z,99.10
2022-12-20T13:02:16.724Z,91.25
2022-12-20T13:04:53.420Z,97.38
2022-12-20T13:07:32.912Z,93.55
2022-12-20T13:10:03.342Z,89.68
2022-12-20T13:12:36.696Z,92.07
2022-12-20T13:15:22.428Z,89.15
2022-12-20T13:17:55.129Z,84.75
2022-12-20T13:20:24.294Z,89.57
2022-12-20T13:23:12.905Z,93.63
2022-12-20T13:25:47.994Z,89.15
2022-12-20T13:28:24.432Z,91.90
2022-12-20T13:30:58.082Z,92.82
2022-12-20T13:33:45.410Z,84.35
2022-12-20T13:36:12.941Z,94.13
2022-12-20T13:38:43.270Z,93.18
2022-12-20T13:41:36.577Z,106.45
2022-12-20T13:44:16.002Z,109.10
2022-12-20T13:47:12.539Z,95.07
2022-12-20T13:49:41.635Z,94.03
2022-12-20T13:52:32.487Z,141.60
2022-12-20T13:55:08.137Z,104.68
2022-12-20T13:57:45.001Z,98.30
2022-12-20T14:00:25.559Z,99.35
2022-12-20T14:02:54.630Z,95.05
2022-12-20T14:05:42.541Z,95.78
2022-12-20T14:08:16.040Z,90.50
2022-12-20T14:10:43.538Z,93.68
2022-12-20T14:13:21.004Z,101.00
2022-12-20T14:15:49.293Z,97.85
2022-12-20T14:18:24.820Z,95.10
2022-12-20T14:20:59.240Z,95.97
2022-12-20T14:23:37.925Z,94.65
2022-12-20T14:26:07.564Z,94.40
2022-12-20T14:28:45.513Z,97.30
2022-12-20T14:31:48.975Z,94.68
2022-12-20T14:34:26.010Z,98.80
2022-12-20T14:37:17.775Z,94.80
2022-12-20T14:40:11.376Z,91.80
2022-12-20T14:42:40.257Z,96.85
2022-12-20T14:45:10.397Z,93.63
2022-12-20T14:47:47.868Z,97.85
2022-12-20T14:50:27.953Z,98.30
2022-12-20T14:52:56.735Z,103.20
2022-12-20T14:55:33.732Z,102.97
2022-12-20T14:58:01.875Z,99.82
2022-12-20T15:00:32.125Z,102.78
2022-12-20T15:03:02.327Z,95.53
2022-12-20T15:05:36.361Z,96.50
2022-12-20T15:08:16.806Z,97.75
2022-12-20T15:11:09.081Z,116.10
2022-12-20T15:13:39.754Z,101.20
2022-12-20T15:16:19.964Z,98.20
2022-12-20T15:18:49.254Z,102.50
2022-12-20T15:21:48.824Z,108.68
2022-12-20T15:24:19.911Z,94.30
2022-12-20T15:26:49.262Z,92.15
2022-12-20T15:29:21.366Z,97.97
2022-12-20T15:31:50.073Z,96.10
2022-12-20T15:34:29.327Z,94.80
2022-12-20T15:37:00.175Z,92.38
2022-12-20T15:39:28.123Z,93.55
2022-12-20T15:41:56.406Z,101.55
2022-12-20T15:44:26.858Z,99.18
2022-12-20T15:46:55.009Z,102.65
2022-12-20T15:49:28.047Z,98.18
2022-12-20T15:51:56.248Z,97.07
2022-12-20T15:54:27.403Z,95.75
2022-12-20T15:56:57.694Z,99.18
2022-12-20T15:59:58.317Z,93.85
2022-12-20T16:02:22.651Z,100.55
2022-12-20T16:04:51.193Z,92.05
2022-12-20T16:07:18.870Z,94.13
2022-12-20T16:09:46.511Z,93.78
2022-12-20T16:12:18.635Z,98.32
2022-12-20T16:14:46.251Z,98.20
2022-12-20T16:17:14.628Z,92.45
2022-12-20T16:19:45.143Z,95.00
2022-12-20T16:22:18.309Z,97.60
2022-12-20T16:24:46.344Z,91.22
2022-12-20T16:27:13.973Z,93.85
2022-12-20T16:29:41.734Z,91.57
2022-12-20T16:32:20.079Z,89.70
2022-12-20T16:34:49.521Z,85.30
2022-12-20T16:37:17.481Z,93.85
2022-12-20T16:39:45.063Z,92.60
2022-12-20T16:42:17.720Z,110.00
2022-12-20T16:44:46.308Z,101.18
2022-12-20T16:47:14.974Z,99.57
2022-12-20T16:49:49.666Z,100.30
2022-12-20T16:52:20.007Z,102.05
2022-12-20T16:54:47.542Z,94.05
2022-12-20T16:57:15.008Z,102.35
2022-12-20T16:59:42.364Z,95.30
2022-12-20T17:02:27.552Z,99.32
2022-12-20T17:04:55.424Z,101.75
2022-12-20T17:07:23.035Z,97.00
2022-12-20T17:09:50.502Z,101.20
2022-12-20T17:12:20.737Z,102.40
2022-12-20T17:14:48.997Z,99.57
2022-12-20T17:17:17.481Z,94.47
2022-12-20T17:19:45.077Z,102.72
2022-12-20T17:24:58.235Z,99.38
2022-12-20T17:27:26.303Z,100.82
2022-12-20T17:29:53.946Z,92.80
2022-12-20T17:32:24.561Z,96.53
2022-12-20T17:34:53.634Z,97.03
2022-12-20T17:37:21.887Z,103.15
2022-12-20T17:39:49.461Z,99.60
2022-12-20T17:42:17.264Z,97.38
2022-12-20T17:44:46.384Z,89.03
2022-12-20T17:47:16.489Z,101.38
2022-12-20T17:49:44.082Z,97.03
2022-12-20T17:52:15.602Z,93.75
2022-12-20T17:54:43.195Z,90.80
2022-12-20T17:57:19.211Z,93.78
2022-12-20T17:59:47.402Z,98.05
2022-12-20T18:02:23.573Z,93.05
2022-12-20T18:04:51.945Z,95.15
2022-12-20T18:07:19.708Z,98.10
2022-12-20T18:09:48.288Z,94.72
2022-12-20T18:12:17.028Z,97.22
2022-12-20T18:14:45.077Z,111.45
2022-12-20T18:17:14.078Z,112.82
2022-12-20T18:19:51.745Z,108.38
2022-12-20T18:22:19.972Z,106.50
2022-12-20T18:24:47.486Z,108.20
2022-12-20T18:27:15.067Z,107.35
2022-12-20T18:29:43.381Z,110.97
2022-12-20T18:32:11.180Z,114.55
2022-12-20T18:34:39.248Z,107.00
2022-12-20T18:37:06.886Z,110.22
2022-12-20T18:39:34.391Z,99.03
2022-12-20T18:42:02.001Z,105.45
2022-12-20T18:44:29.564Z,104.05
2022-12-20T18:46:57.136Z,109.63
2022-12-20T18:49:24.730Z,110.18
2022-12-20T18:51:52.216Z,109.88
2022-12-20T18:54:19.765Z,113.85
2022-12-20T18:56:49.397Z,118.22
2022-12-20T18:59:17.100Z,117.13
2022-12-20T19:01:44.708Z,112.22
2022-12-20T19:04:12.385Z,118.00
2022-12-20T19:06:40.189Z,116.65
2022-12-20T19:09:13.378Z,114.40
2022-12-20T19:11:56.172Z,117.22
2022-12-20T19:14:28.596Z,109.25
2022-12-20T19:16:56.220Z,110.55
2022-12-20T19:19:26.597Z,118.18
2022-12-20T19:21:54.185Z,110.88
2022-12-20T19:24:21.843Z,109.70
2022-12-20T19:26:49.739Z,118.07
2022-12-20T19:29:17.350Z,111.43
2022-12-20T19:31:44.965Z,122.60
2022-12-20T19:34:13.219Z,113.78
2022-12-20T19:36:43.433Z,113.40
2022-12-20T19:39:16.947Z,107.13
2022-12-20T19:41:54.978Z,113.85
2022-12-20T19:44:28.023Z,112.30
2022-12-20T19:46:55.764Z,114.30
2022-12-20T19:49:23.677Z,111.85
2022-12-20T19:51:51.215Z,118.55
2022-12-20T19:54:18.788Z,114.93
2022-12-20T19:56:46.305Z,113.10
2022-12-20T19:59:14.335Z,111.30
2022-12-20T20:01:42.062Z,109.30
2022-12-20T20:04:12.179Z,111.75
2022-12-20T20:06:39.897Z,106.18
2022-12-20T20:09:07.732Z,101.95
2022-12-20T20:11:35.327Z,103.53
2022-12-20T20:14:04.016Z,107.95
2022-12-20T20:16:32.007Z,104.47
2022-12-20T20:18:59.686Z,110.82
2022-12-20T20:21:27.615Z,113.63
2022-12-20T20:23:55.610Z,108.30
2022-12-20T20:26:26.906Z,117.88
2022-12-20T20:28:54.560Z,110.07
2022-12-20T20:31:22.627Z,111.60
2022-12-20T20:33:50.812Z,107.40
2022-12-20T20:36:21.377Z,113.45
2022-12-20T20:38:50.291Z,112.53
2022-12-20T20:41:18.972Z,104.10
2022-12-20T20:43:52.231Z,109.25
2022-12-20T20:46:20.043Z,104.45
2022-12-20T20:48:47.904Z,104.97
2022-12-20T20:51:15.773Z,103.93
2022-12-20T20:53:46.512Z,104.88
2022-12-20T20:56:14.180Z,102.88
2022-12-20T20:58:42.761Z,103.00
2022-12-20T21:01:11.268Z,97.15
2022-12-20T21:03:40.244Z,96.00
2022-12-20T21:08:56.925Z,91.93
2022-12-20T21:11:32.847Z,94.35
2022-12-20T21:14:00.776Z,90.35
2022-12-20T21:16:29.837Z,89.57
2022-12-20T21:18:58.942Z,89.10
2022-12-20T21:21:26.915Z,92.80
2022-12-20T21:23:55.110Z,83.95
2022-12-20T21:26:30.197Z,85.95
2022-12-20T21:29:01.359Z,91.90
2022-12-20T21:31:29.189Z,94.68
2022-12-20T21:33:57.389Z,83.32
2022-12-20T21:36:25.588Z,87.05
2022-12-20T21:38:55.917Z,88.65
2022-12-20T21:45:12.104Z,92.10
2022-12-20T21:47:42.866Z,88.22
2022-12-20T21:50:10.737Z,95.72
2022-12-20T21:52:40.074Z,96.40
2022-12-20T21:55:08.151Z,87.00
2022-12-20T21:57:35.911Z,92.95
2022-12-20T22:00:05.035Z,89.60
2022-12-20T22:02:36.048Z,98.57
2022-12-20T22:05:03.918Z,91.18
2022-12-20T22:07:33.775Z,87.43
2022-12-20T22:10:01.491Z,90.18
2022-12-20T22:12:29.157Z,90.78
2022-12-20T22:14:56.795Z,84.07
2022-12-20T22:17:26.714Z,82.72
2022-12-20T22:19:54.238Z,83.82
2022-12-20T22:22:22.006Z,84.65
2022-12-20T22:24:49.592Z,80.13
2022-12-20T22:27:17.252Z,87.22
2022-12-20T22:29:44.823Z,88.20
2022-12-20T22:32:12.625Z,82.88
2022-12-20T22:34:40.320Z,85.78
2022-12-20T22:37:07.898Z,89.60
2022-12-20T22:39:35.553Z,88.80
2022-12-20T22:42:03.208Z,87.43
2022-12-20T22:44:35.951Z,88.25
2022-12-20T22:47:03.571Z,85.72
2022-12-20T22:49:31.183Z,92.18
2022-12-20T22:52:06.816Z,83.25
2022-12-20T22:54:37.491Z,97.53
2022-12-20T22:57:05.046Z,95.00
2022-12-20T22:59:34.681Z,86.63
2022-12-20T23:02:02.467Z,83.13
2022-12-20T23:04:30.175Z,81.10
2022-12-20T23:06:57.852Z,81.90
2022-12-20T23:09:26.447Z,86.40
2022-12-20T23:12:12.646Z,83.03
2022-12-20T23:15:03.829Z,85.22
2022-12-20T23:17:32.817Z,85.40
2022-12-20T23:20:18.451Z,91.55
2022-12-20T23:22:50.941Z,89.30
2022-12-20T23:25:29.392Z,83.40
2022-12-20T23:27:59.781Z,88.78
2022-12-20T23:30:28.087Z,86.05
2022-12-20T23:32:56.283Z,87.53
2022-12-20T23:35:56.497Z,87.82
2022-12-20T23:38:24.076Z,99.53
2022-12-20T23:40:51.834Z,97.82
2022-12-20T23:43:19.657Z,90.22
2022-12-20T23:45:47.356Z,88.35
2022-12-20T23:48:17.652Z,95.43
2022-12-20T23:50:45.500Z,95.25
2022-12-20T23:53:13.037Z,88.90
2022-12-20T23:55:40.656Z,92.05
2022-12-20T23:58:08.252Z,91.85
